Terminal Aerodrome Forecast
Issued by NWS

Home | Current Version | Previous Version | Text Only | Print | Product List | Glossary On
Versions: 1 2 3 4 5 6 7 8 9 10 11 12 13 14
778
FTUS46 KEKA 232320
TAFCEC
TAF
KCEC 232320Z 2400/2424 18010KT P6SM VCSH SCT025 BKN035
     FM240300 18012KT 6SM -RA SCT015 BKN025 OVC050
     FM240700 17020G34KT 4SM RA BR SCT010 OVC025
     FM241400 18015G25KT 2SM RA BR SCT004 OVC015
     FM241800 23010KT 2SM -SHRA BR SCT002 BKN010=

USA.gov is the U.S. government's official web portal to all federal, state and local government web resources and services.